sensor_id;sensor_type;location;lat;lon;timestamp;pressure;altitude;pressure_sealevel;temperature;humidity
78409;BME280;67697;50.750;-3.270;2023-11-22T00:01:26;102503.48;;;9.47;64.62
78409;BME280;67697;50.750;-3.270;2023-11-22T00:03:52;102502.62;;;9.32;66.21
78409;BME280;67697;50.750;-3.270;2023-11-22T00:06:16;102506.15;;;8.80;67.95
78409;BME280;67697;50.750;-3.270;2023-11-22T00:08:42;102501.50;;;9.28;68.12
78409;BME280;67697;50.750;-3.270;2023-11-22T00:11:08;102495.17;;;8.44;68.87
78409;BME280;67697;50.750;-3.270;2023-11-22T00:13:33;102500.29;;;8.62;69.70
78409;BME280;67697;50.750;-3.270;2023-11-22T00:15:59;102501.72;;;9.17;68.69
78409;BME280;67697;50.750;-3.270;2023-11-22T00:18:25;102499.75;;;9.35;67.75
78409;BME280;67697;50.750;-3.270;2023-11-22T00:20:51;102502.32;;;9.82;66.68
78409;BME280;67697;50.750;-3.270;2023-11-22T00:23:16;102500.18;;;9.41;66.63
78409;BME280;67697;50.750;-3.270;2023-11-22T00:25:42;102499.39;;;9.62;65.84
78409;BME280;67697;50.750;-3.270;2023-11-22T00:28:08;102498.72;;;10.36;63.17
78409;BME280;67697;50.750;-3.270;2023-11-22T00:30:34;102492.67;;;10.48;61.24
78409;BME280;67697;50.750;-3.270;2023-11-22T00:32:59;102492.26;;;10.51;60.18
78409;BME280;67697;50.750;-3.270;2023-11-22T00:35:25;102494.44;;;10.39;61.29
78409;BME280;67697;50.750;-3.270;2023-11-22T00:37:51;102499.56;;;10.19;63.30
78409;BME280;67697;50.750;-3.270;2023-11-22T00:40:16;102507.53;;;10.35;63.88
78409;BME280;67697;50.750;-3.270;2023-11-22T00:42:42;102513.91;;;9.73;65.32
78409;BME280;67697;50.750;-3.270;2023-11-22T00:45:08;102512.85;;;10.07;65.56
78409;BME280;67697;50.750;-3.270;2023-11-22T00:47:32;102509.58;;;9.61;65.83
78409;BME280;67697;50.750;-3.270;2023-11-22T00:49:57;102505.25;;;9.99;66.01
78409;BME280;67697;50.750;-3.270;2023-11-22T00:52:22;102505.35;;;10.53;63.72
78409;BME280;67697;50.750;-3.270;2023-11-22T00:54:48;102502.33;;;10.87;61.99
78409;BME280;67697;50.750;-3.270;2023-11-22T00:57:14;102505.03;;;11.10;60.63
78409;BME280;67697;50.750;-3.270;2023-11-22T00:59:40;102509.63;;;11.28;60.08
78409;BME280;67697;50.750;-3.270;2023-11-22T01:02:05;102513.50;;;10.95;59.26
78409;BME280;67697;50.750;-3.270;2023-11-22T01:04:31;102515.96;;;11.66;58.09
78409;BME280;67697;50.750;-3.270;2023-11-22T01:06:57;102520.34;;;12.63;56.34
78409;BME280;67697;50.750;-3.270;2023-11-22T01:09:22;102529.16;;;11.87;57.05
78409;BME280;67697;50.750;-3.270;2023-11-22T01:11:48;102526.87;;;12.28;55.44
78409;BME280;67697;50.750;-3.270;2023-11-22T01:14:14;102520.17;;;11.02;58.48
78409;BME280;67697;50.750;-3.270;2023-11-22T01:16:39;102511.60;;;10.85;58.86
78409;BME280;67697;50.750;-3.270;2023-11-22T01:19:04;102509.19;;;10.62;59.69
78409;BME280;67697;50.750;-3.270;2023-11-22T01:21:29;102505.27;;;11.39;59.75
78409;BME280;67697;50.750;-3.270;2023-11-22T01:23:55;102494.92;;;11.40;59.38
78409;BME280;67697;50.750;-3.270;2023-11-22T01:26:20;102495.78;;;11.74;58.33
78409;BME280;67697;50.750;-3.270;2023-11-22T01:28:45;102493.67;;;11.80;58.64
78409;BME280;67697;50.750;-3.270;2023-11-22T01:31:12;102491.72;;;11.90;57.30
78409;BME280;67697;50.750;-3.270;2023-11-22T01:33:37;102490.10;;;11.89;56.50
78409;BME280;67697;50.750;-3.270;2023-11-22T01:36:02;102486.25;;;12.01;56.02
78409;BME280;67697;50.750;-3.270;2023-11-22T01:38:27;102482.52;;;12.33;54.71
78409;BME280;67697;50.750;-3.270;2023-11-22T01:40:53;102488.79;;;11.87;55.29
78409;BME280;67697;50.750;-3.270;2023-11-22T01:43:20;102492.30;;;11.52;56.32
78409;BME280;67697;50.750;-3.270;2023-11-22T01:45:43;102499.27;;;11.39;57.82
78409;BME280;67697;50.750;-3.270;2023-11-22T01:48:10;102498.76;;;11.60;57.35
78409;BME280;67697;50.750;-3.270;2023-11-22T01:50:34;102498.87;;;11.74;56.86
78409;BME280;67697;50.750;-3.270;2023-11-22T01:53:00;102503.54;;;11.99;56.99
78409;BME280;67697;50.750;-3.270;2023-11-22T01:55:25;102508.20;;;11.55;57.33
78409;BME280;67697;50.750;-3.270;2023-11-22T01:57:50;102509.48;;;10.92;59.01
78409;BME280;67697;50.750;-3.270;2023-11-22T02:00:16;102512.77;;;11.35;57.85
78409;BME280;67697;50.750;-3.270;2023-11-22T02:02:41;102511.42;;;11.11;59.62
78409;BME280;67697;50.750;-3.270;2023-11-22T02:05:07;102513.51;;;11.24;58.41
78409;BME280;67697;50.750;-3.270;2023-11-22T02:07:32;102513.32;;;11.86;56.71
78409;BME280;67697;50.750;-3.270;2023-11-22T02:09:58;102506.45;;;11.34;57.03
78409;BME280;67697;50.750;-3.270;2023-11-22T02:12:23;102512.60;;;11.59;56.47
78409;BME280;67697;50.750;-3.270;2023-11-22T02:14:49;102521.15;;;11.54;56.76
78409;BME280;67697;50.750;-3.270;2023-11-22T02:17:14;102521.62;;;11.84;54.98
78409;BME280;67697;50.750;-3.270;2023-11-22T02:19:39;102518.66;;;11.93;55.27
78409;BME280;67697;50.750;-3.270;2023-11-22T02:22:05;102516.67;;;11.27;54.27
78409;BME280;67697;50.750;-3.270;2023-11-22T02:24:31;102517.84;;;10.60;56.08
78409;BME280;67697;50.750;-3.270;2023-11-22T02:26:56;102522.28;;;9.79;59.57
78409;BME280;67697;50.750;-3.270;2023-11-22T02:29:21;102515.15;;;9.67;61.84
78409;BME280;67697;50.750;-3.270;2023-11-22T02:31:46;102508.98;;;9.68;63.28
78409;BME280;67697;50.750;-3.270;2023-11-22T02:34:12;102507.28;;;9.42;63.85
78409;BME280;67697;50.750;-3.270;2023-11-22T02:36:37;102507.42;;;8.30;67.36
78409;BME280;67697;50.750;-3.270;2023-11-22T02:39:03;102508.20;;;8.34;68.03
78409;BME280;67697;50.750;-3.270;2023-11-22T02:41:29;102506.02;;;7.69;69.67
78409;BME280;67697;50.750;-3.270;2023-11-22T02:43:54;102509.30;;;7.82;72.36
78409;BME280;67697;50.750;-3.270;2023-11-22T02:46:19;102498.96;;;8.45;71.21
78409;BME280;67697;50.750;-3.270;2023-11-22T02:48:45;102496.72;;;8.73;70.32
78409;BME280;67697;50.750;-3.270;2023-11-22T02:51:12;102493.02;;;9.01;69.29
78409;BME280;67697;50.750;-3.270;2023-11-22T02:53:36;102489.51;;;9.85;66.34
78409;BME280;67697;50.750;-3.270;2023-11-22T02:56:02;102487.64;;;10.19;63.88
78409;BME280;67697;50.750;-3.270;2023-11-22T02:58:28;102491.11;;;10.34;62.25
78409;BME280;67697;50.750;-3.270;2023-11-22T03:00:53;102490.32;;;10.66;63.02
78409;BME280;67697;50.750;-3.270;2023-11-22T03:03:18;102491.81;;;11.14;61.82
78409;BME280;67697;50.750;-3.270;2023-11-22T03:05:44;102496.24;;;11.30;60.87
78409;BME280;67697;50.750;-3.270;2023-11-22T03:08:09;102487.11;;;10.60;61.02
78409;BME280;67697;50.750;-3.270;2023-11-22T03:10:35;102495.37;;;11.49;57.58
78409;BME280;67697;50.750;-3.270;2023-11-22T03:13:00;102497.15;;;11.27;58.32
78409;BME280;67697;50.750;-3.270;2023-11-22T03:15:26;102500.59;;;11.53;56.77
78409;BME280;67697;50.750;-3.270;2023-11-22T03:17:52;102504.84;;;10.76;58.83
78409;BME280;67697;50.750;-3.270;2023-11-22T03:20:17;102509.51;;;12.14;55.76
78409;BME280;67697;50.750;-3.270;2023-11-22T03:22:42;102509.12;;;12.27;54.67
78409;BME280;67697;50.750;-3.270;2023-11-22T03:25:08;102513.98;;;11.53;56.89
78409;BME280;67697;50.750;-3.270;2023-11-22T03:27:34;102511.96;;;11.56;56.49
78409;BME280;67697;50.750;-3.270;2023-11-22T03:30:00;102505.87;;;11.63;56.51
78409;BME280;67697;50.750;-3.270;2023-11-22T03:32:25;102495.84;;;11.12;57.62
78409;BME280;67697;50.750;-3.270;2023-11-22T03:34:50;102495.09;;;11.14;56.22
78409;BME280;67697;50.750;-3.270;2023-11-22T03:37:15;102493.62;;;11.97;54.71
78409;BME280;67697;50.750;-3.270;2023-11-22T03:39:41;102494.07;;;11.55;55.41
78409;BME280;67697;50.750;-3.270;2023-11-22T03:42:06;102496.94;;;11.88;54.28
78409;BME280;67697;50.750;-3.270;2023-11-22T03:44:32;102495.53;;;12.32;53.71
78409;BME280;67697;50.750;-3.270;2023-11-22T03:46:57;102500.01;;;12.81;52.96
78409;BME280;67697;50.750;-3.270;2023-11-22T03:49:23;102509.74;;;10.96;55.51
78409;BME280;67697;50.750;-3.270;2023-11-22T03:51:49;102506.87;;;12.28;54.31
78409;BME280;67697;50.750;-3.270;2023-11-22T03:54:15;102497.86;;;12.60;53.10
78409;BME280;67697;50.750;-3.270;2023-11-22T03:56:40;102492.54;;;11.88;53.86
78409;BME280;67697;50.750;-3.270;2023-11-22T03:59:06;102488.39;;;11.69;53.76
78409;BME280;67697;50.750;-3.270;2023-11-22T04:01:31;102494.28;;;11.15;54.87
78409;BME280;67697;50.750;-3.270;2023-11-22T04:03:57;102494.29;;;11.64;54.39
78409;BME280;67697;50.750;-3.270;2023-11-22T04:06:22;102501.09;;;11.91;54.05
78409;BME280;67697;50.750;-3.270;2023-11-22T04:08:48;102503.87;;;11.95;54.18
78409;BME280;67697;50.750;-3.270;2023-11-22T04:11:13;102502.24;;;12.05;52.90
78409;BME280;67697;50.750;-3.270;2023-11-22T04:13:39;102499.79;;;11.30;54.65
78409;BME280;67697;50.750;-3.270;2023-11-22T04:16:05;102498.69;;;10.27;59.70
78409;BME280;67697;50.750;-3.270;2023-11-22T04:18:30;102498.52;;;10.21;59.73
78409;BME280;67697;50.750;-3.270;2023-11-22T04:20:56;102501.11;;;9.39;62.16
78409;BME280;67697;50.750;-3.270;2023-11-22T04:23:21;102501.04;;;9.68;62.36
78409;BME280;67697;50.750;-3.270;2023-11-22T04:25:47;102501.37;;;8.99;65.95
78409;BME280;67697;50.750;-3.270;2023-11-22T04:28:12;102499.47;;;10.21;63.97
78409;BME280;67697;50.750;-3.270;2023-11-22T04:30:37;102494.99;;;10.65;62.75
78409;BME280;67697;50.750;-3.270;2023-11-22T04:33:03;102486.95;;;10.22;61.76
78409;BME280;67697;50.750;-3.270;2023-11-22T04:35:29;102493.28;;;10.24;62.36
78409;BME280;67697;50.750;-3.270;2023-11-22T04:37:55;102494.14;;;11.18;61.43
78409;BME280;67697;50.750;-3.270;2023-11-22T04:40:21;102497.64;;;11.45;59.37
78409;BME280;67697;50.750;-3.270;2023-11-22T04:42:46;102496.96;;;11.18;58.99
78409;BME280;67697;50.750;-3.270;2023-11-22T04:45:12;102499.96;;;10.89;58.93
78409;BME280;67697;50.750;-3.270;2023-11-22T04:47:37;102501.38;;;10.55;59.77
78409;BME280;67697;50.750;-3.270;2023-11-22T04:50:03;102506.33;;;10.59;60.67
78409;BME280;67697;50.750;-3.270;2023-11-22T04:52:28;102504.49;;;10.12;61.51
78409;BME280;67697;50.750;-3.270;2023-11-22T04:54:53;102503.29;;;10.04;62.63
78409;BME280;67697;50.750;-3.270;2023-11-22T04:57:19;102497.26;;;10.97;60.40
78409;BME280;67697;50.750;-3.270;2023-11-22T04:59:45;102494.90;;;11.05;58.56
78409;BME280;67697;50.750;-3.270;2023-11-22T05:02:10;102488.58;;;11.61;58.32
78409;BME280;67697;50.750;-3.270;2023-11-22T05:04:35;102483.25;;;11.45;57.18
78409;BME280;67697;50.750;-3.270;2023-11-22T05:07:00;102482.05;;;11.90;55.94
78409;BME280;67697;50.750;-3.270;2023-11-22T05:09:26;102487.29;;;12.03;55.27
78409;BME280;67697;50.750;-3.270;2023-11-22T05:11:52;102494.59;;;12.01;55.70
78409;BME280;67697;50.750;-3.270;2023-11-22T05:14:17;102493.16;;;12.30;54.35
78409;BME280;67697;50.750;-3.270;2023-11-22T05:16:42;102492.37;;;12.04;55.10
78409;BME280;67697;50.750;-3.270;2023-11-22T05:19:08;102493.78;;;11.58;55.66
78409;BME280;67697;50.750;-3.270;2023-11-22T05:21:34;102501.19;;;11.32;56.93
78409;BME280;67697;50.750;-3.270;2023-11-22T05:23:59;102499.29;;;11.58;56.49
78409;BME280;67697;50.750;-3.270;2023-11-22T05:26:25;102489.84;;;11.27;57.25
78409;BME280;67697;50.750;-3.270;2023-11-22T05:28:50;102490.65;;;10.60;59.91
78409;BME280;67697;50.750;-3.270;2023-11-22T05:31:15;102493.35;;;8.63;64.99
78409;BME280;67697;50.750;-3.270;2023-11-22T05:33:40;102501.52;;;9.98;62.57
78409;BME280;67697;50.750;-3.270;2023-11-22T05:36:06;102504.87;;;10.50;62.14
78409;BME280;67697;50.750;-3.270;2023-11-22T05:38:30;102506.82;;;11.45;58.27
78409;BME280;67697;50.750;-3.270;2023-11-22T05:40:56;102504.74;;;11.58;58.10
78409;BME280;67697;50.750;-3.270;2023-11-22T05:43:21;102499.63;;;11.02;57.99
78409;BME280;67697;50.750;-3.270;2023-11-22T05:45:47;102494.76;;;12.07;56.75
78409;BME280;67697;50.750;-3.270;2023-11-22T05:48:12;102492.90;;;8.33;63.81
78409;BME280;67697;50.750;-3.270;2023-11-22T05:50:37;102495.86;;;9.06;66.06
78409;BME280;67697;50.750;-3.270;2023-11-22T05:53:03;102488.75;;;11.19;60.15
78409;BME280;67697;50.750;-3.270;2023-11-22T05:55:28;102492.24;;;11.62;58.39
78409;BME280;67697;50.750;-3.270;2023-11-22T05:57:54;102492.98;;;11.52;58.40
78409;BME280;67697;50.750;-3.270;2023-11-22T06:00:20;102498.35;;;11.64;58.24
78409;BME280;67697;50.750;-3.270;2023-11-22T06:02:45;102510.49;;;11.62;56.39
78409;BME280;67697;50.750;-3.270;2023-11-22T06:05:11;102509.44;;;11.60;55.92
78409;BME280;67697;50.750;-3.270;2023-11-22T06:07:36;102508.22;;;12.39;54.27
78409;BME280;67697;50.750;-3.270;2023-11-22T06:10:02;102508.59;;;11.40;55.03
78409;BME280;67697;50.750;-3.270;2023-11-22T06:12:28;102509.63;;;11.49;56.73
78409;BME280;67697;50.750;-3.270;2023-11-22T06:14:53;102505.82;;;12.70;54.15
78409;BME280;67697;50.750;-3.270;2023-11-22T06:17:19;102503.55;;;12.03;54.35
78409;BME280;67697;50.750;-3.270;2023-11-22T06:19:44;102497.33;;;11.82;55.52
78409;BME280;67697;50.750;-3.270;2023-11-22T06:22:10;102498.57;;;12.05;55.19
78409;BME280;67697;50.750;-3.270;2023-11-22T06:24:36;102502.20;;;11.96;55.75
78409;BME280;67697;50.750;-3.270;2023-11-22T06:27:01;102500.79;;;12.00;55.89
78409;BME280;67697;50.750;-3.270;2023-11-22T06:29:27;102502.80;;;10.89;58.78
78409;BME280;67697;50.750;-3.270;2023-11-22T06:31:53;102496.49;;;12.11;55.76
78409;BME280;67697;50.750;-3.270;2023-11-22T06:34:18;102498.54;;;12.59;54.28
78409;BME280;67697;50.750;-3.270;2023-11-22T06:36:44;102501.36;;;12.13;55.30
78409;BME280;67697;50.750;-3.270;2023-11-22T06:39:10;102509.46;;;11.86;56.18
78409;BME280;67697;50.750;-3.270;2023-11-22T06:41:36;102507.31;;;12.49;54.86
78409;BME280;67697;50.750;-3.270;2023-11-22T06:44:01;102513.19;;;12.06;55.42
78409;BME280;67697;50.750;-3.270;2023-11-22T06:46:27;102521.18;;;11.87;55.35
78409;BME280;67697;50.750;-3.270;2023-11-22T06:48:53;102528.42;;;11.63;55.05
78409;BME280;67697;50.750;-3.270;2023-11-22T06:51:18;102532.53;;;11.97;54.98
78409;BME280;67697;50.750;-3.270;2023-11-22T06:53:44;102537.83;;;11.75;55.55
78409;BME280;67697;50.750;-3.270;2023-11-22T06:56:09;102542.11;;;12.11;54.66
78409;BME280;67697;50.750;-3.270;2023-11-22T06:58:35;102541.07;;;12.03;54.77
78409;BME280;67697;50.750;-3.270;2023-11-22T07:01:01;102548.42;;;12.58;54.07
78409;BME280;67697;50.750;-3.270;2023-11-22T07:03:26;102557.08;;;12.22;54.60
78409;BME280;67697;50.750;-3.270;2023-11-22T07:05:51;102554.47;;;12.77;55.19
78409;BME280;67697;50.750;-3.270;2023-11-22T07:08:16;102553.04;;;10.22;60.17
78409;BME280;67697;50.750;-3.270;2023-11-22T07:10:42;102563.23;;;12.16;55.14
78409;BME280;67697;50.750;-3.270;2023-11-22T07:13:07;102566.54;;;12.21;56.11
78409;BME280;67697;50.750;-3.270;2023-11-22T07:15:33;102561.56;;;12.68;55.25
78409;BME280;67697;50.750;-3.270;2023-11-22T07:17:59;102559.18;;;11.92;56.03
78409;BME280;67697;50.750;-3.270;2023-11-22T07:20:25;102563.89;;;10.02;59.33
78409;BME280;67697;50.750;-3.270;2023-11-22T07:22:50;102565.53;;;11.71;57.98
78409;BME280;67697;50.750;-3.270;2023-11-22T07:25:16;102566.91;;;11.86;57.42
78409;BME280;67697;50.750;-3.270;2023-11-22T07:27:41;102560.99;;;9.83;61.48
78409;BME280;67697;50.750;-3.270;2023-11-22T07:30:08;102547.78;;;11.05;59.76
78409;BME280;67697;50.750;-3.270;2023-11-22T07:32:33;102549.14;;;10.67;60.45
78409;BME280;67697;50.750;-3.270;2023-11-22T07:34:59;102546.60;;;11.29;59.77
78409;BME280;67697;50.750;-3.270;2023-11-22T07:37:25;102541.46;;;11.29;59.32
78409;BME280;67697;50.750;-3.270;2023-11-22T07:39:50;102546.33;;;11.64;57.93
78409;BME280;67697;50.750;-3.270;2023-11-22T07:42:16;102549.49;;;11.67;58.72
78409;BME280;67697;50.750;-3.270;2023-11-22T07:44:41;102559.49;;;11.33;59.80
78409;BME280;67697;50.750;-3.270;2023-11-22T07:47:07;102563.48;;;12.15;56.74
78409;BME280;67697;50.750;-3.270;2023-11-22T07:49:33;102563.47;;;11.92;56.41
78409;BME280;67697;50.750;-3.270;2023-11-22T07:51:58;102566.25;;;12.47;56.00
78409;BME280;67697;50.750;-3.270;2023-11-22T07:54:24;102569.86;;;12.58;56.28
78409;BME280;67697;50.750;-3.270;2023-11-22T07:56:49;102569.34;;;11.88;56.24
78409;BME280;67697;50.750;-3.270;2023-11-22T07:59:15;102571.54;;;12.83;55.37
78409;BME280;67697;50.750;-3.270;2023-11-22T08:01:43;102578.41;;;12.82;54.48
78409;BME280;67697;50.750;-3.270;2023-11-22T08:04:07;102575.23;;;12.27;55.29
78409;BME280;67697;50.750;-3.270;2023-11-22T08:06:32;102575.10;;;12.23;55.85
78409;BME280;67697;50.750;-3.270;2023-11-22T08:08:58;102578.27;;;12.70;55.81
78409;BME280;67697;50.750;-3.270;2023-11-22T08:11:23;102578.45;;;13.11;54.25
78409;BME280;67697;50.750;-3.270;2023-11-22T08:13:49;102575.69;;;12.47;55.59
78409;BME280;67697;50.750;-3.270;2023-11-22T08:16:14;102570.04;;;8.98;63.90
78409;BME280;67697;50.750;-3.270;2023-11-22T08:18:40;102564.42;;;10.05;64.46
78409;BME280;67697;50.750;-3.270;2023-11-22T08:21:06;102576.33;;;11.41;60.74
78409;BME280;67697;50.750;-3.270;2023-11-22T08:23:31;102582.24;;;11.15;61.19
78409;BME280;67697;50.750;-3.270;2023-11-22T08:25:57;102575.86;;;12.20;57.87
78409;BME280;67697;50.750;-3.270;2023-11-22T08:28:22;102579.74;;;12.70;55.56
78409;BME280;67697;50.750;-3.270;2023-11-22T08:30:48;102580.75;;;12.53;55.97
78409;BME280;67697;50.750;-3.270;2023-11-22T08:33:13;102571.23;;;13.20;53.97
78409;BME280;67697;50.750;-3.270;2023-11-22T08:35:39;102565.35;;;12.79;55.07
78409;BME280;67697;50.750;-3.270;2023-11-22T08:38:05;102569.63;;;12.15;56.71
78409;BME280;67697;50.750;-3.270;2023-11-22T08:40:30;102570.13;;;13.22;54.69
78409;BME280;67697;50.750;-3.270;2023-11-22T08:42:56;102572.56;;;12.52;55.75
78409;BME280;67697;50.750;-3.270;2023-11-22T08:45:22;102559.77;;;13.42;53.57
78409;BME280;67697;50.750;-3.270;2023-11-22T08:47:47;102556.92;;;12.83;55.26
78409;BME280;67697;50.750;-3.270;2023-11-22T08:50:13;102557.51;;;13.24;54.65
78409;BME280;67697;50.750;-3.270;2023-11-22T08:52:39;102558.82;;;13.39;53.88
78409;BME280;67697;50.750;-3.270;2023-11-22T08:55:06;102567.40;;;11.88;56.69
78409;BME280;67697;50.750;-3.270;2023-11-22T08:57:29;102562.85;;;12.82;55.12
78409;BME280;67697;50.750;-3.270;2023-11-22T08:59:55;102569.95;;;13.15;54.00
78409;BME280;67697;50.750;-3.270;2023-11-22T09:02:21;102566.65;;;12.94;55.13
78409;BME280;67697;50.750;-3.270;2023-11-22T09:04:46;102568.26;;;11.42;57.78
78409;BME280;67697;50.750;-3.270;2023-11-22T09:07:12;102566.70;;;11.56;58.50
78409;BME280;67697;50.750;-3.270;2023-11-22T09:09:38;102561.11;;;11.79;59.18
78409;BME280;67697;50.750;-3.270;2023-11-22T09:12:04;102560.47;;;12.60;56.77
78409;BME280;67697;50.750;-3.270;2023-11-22T09:14:29;102555.64;;;13.27;55.51
78409;BME280;67697;50.750;-3.270;2023-11-22T09:16:54;102560.01;;;12.39;56.89
78409;BME280;67697;50.750;-3.270;2023-11-22T09:19:20;102562.93;;;12.15;58.55
78409;BME280;67697;50.750;-3.270;2023-11-22T09:21:46;102558.42;;;13.20;56.33
78409;BME280;67697;50.750;-3.270;2023-11-22T09:24:12;102554.63;;;12.70;57.47
78409;BME280;67697;50.750;-3.270;2023-11-22T09:26:37;102548.38;;;13.43;56.94
78409;BME280;67697;50.750;-3.270;2023-11-22T09:29:03;102540.31;;;13.22;57.78
78409;BME280;67697;50.750;-3.270;2023-11-22T09:31:28;102540.76;;;10.96;64.75
78409;BME280;67697;50.750;-3.270;2023-11-22T09:33:54;102534.92;;;13.12;59.54
78409;BME280;67697;50.750;-3.270;2023-11-22T09:36:20;102538.77;;;12.06;62.11
78409;BME280;67697;50.750;-3.270;2023-11-22T09:38:46;102547.03;;;11.72;65.00
78409;BME280;67697;50.750;-3.270;2023-11-22T09:41:11;102549.86;;;12.24;63.11
78409;BME280;67697;50.750;-3.270;2023-11-22T09:43:37;102540.98;;;12.34;64.11
78409;BME280;67697;50.750;-3.270;2023-11-22T09:46:03;102546.22;;;11.26;67.24
78409;BME280;67697;50.750;-3.270;2023-11-22T09:48:29;102554.12;;;11.63;66.49
78409;BME280;67697;50.750;-3.270;2023-11-22T09:50:57;102548.25;;;11.11;68.40
78409;BME280;67697;50.750;-3.270;2023-11-22T09:53:25;102539.38;;;11.74;65.44
78409;BME280;67697;50.750;-3.270;2023-11-22T09:55:45;102526.07;;;11.57;66.17
78409;BME280;67697;50.750;-3.270;2023-11-22T09:58:12;102524.19;;;12.02;65.05
78409;BME280;67697;50.750;-3.270;2023-11-22T10:00:36;102527.06;;;12.06;62.51
78409;BME280;67697;50.750;-3.270;2023-11-22T10:03:01;102527.43;;;12.69;62.96
78409;BME280;67697;50.750;-3.270;2023-11-22T10:05:27;102524.39;;;13.20;60.86
78409;BME280;67697;50.750;-3.270;2023-11-22T10:07:53;102536.46;;;12.63;60.72
78409;BME280;67697;50.750;-3.270;2023-11-22T10:10:19;102544.18;;;13.49;61.06
78409;BME280;67697;50.750;-3.270;2023-11-22T10:12:43;102551.71;;;12.95;62.52
78409;BME280;67697;50.750;-3.270;2023-11-22T10:15:12;102556.12;;;13.48;60.50
78409;BME280;67697;50.750;-3.270;2023-11-22T10:17:35;102563.10;;;12.07;63.76
78409;BME280;67697;50.750;-3.270;2023-11-22T10:20:01;102555.08;;;14.12;59.94
78409;BME280;67697;50.750;-3.270;2023-11-22T10:22:26;102553.11;;;13.70;59.50
78409;BME280;67697;50.750;-3.270;2023-11-22T10:24:51;102548.75;;;14.44;58.70
78409;BME280;67697;50.750;-3.270;2023-11-22T10:27:16;102546.93;;;14.50;59.35
78409;BME280;67697;50.750;-3.270;2023-11-22T10:29:42;102537.35;;;14.33;57.77
78409;BME280;67697;50.750;-3.270;2023-11-22T10:32:08;102535.43;;;13.92;60.31
78409;BME280;67697;50.750;-3.270;2023-11-22T10:34:34;102533.39;;;14.45;60.13
78409;BME280;67697;50.750;-3.270;2023-11-22T10:36:59;102530.15;;;13.60;61.62
78409;BME280;67697;50.750;-3.270;2023-11-22T10:39:24;102532.13;;;13.51;63.98
78409;BME280;67697;50.750;-3.270;2023-11-22T10:41:50;102543.88;;;12.03;69.99
78409;BME280;67697;50.750;-3.270;2023-11-22T10:44:16;102542.24;;;12.31;69.66
78409;BME280;67697;50.750;-3.270;2023-11-22T10:46:41;102542.54;;;12.68;70.63
78409;BME280;67697;50.750;-3.270;2023-11-22T10:49:06;102527.10;;;13.17;69.00
78409;BME280;67697;50.750;-3.270;2023-11-22T10:51:33;102516.50;;;12.98;67.78
78409;BME280;67697;50.750;-3.270;2023-11-22T10:53:58;102504.68;;;13.87;65.88
78409;BME280;67697;50.750;-3.270;2023-11-22T10:56:24;102499.52;;;13.53;66.46
78409;BME280;67697;50.750;-3.270;2023-11-22T10:58:51;102500.24;;;12.80;68.28
78409;BME280;67697;50.750;-3.270;2023-11-22T11:01:16;102506.74;;;13.54;66.51
78409;BME280;67697;50.750;-3.270;2023-11-22T11:03:40;102504.43;;;14.20;63.44
78409;BME280;67697;50.750;-3.270;2023-11-22T11:06:08;102498.58;;;13.12;68.27
78409;BME280;67697;50.750;-3.270;2023-11-22T11:08:32;102503.80;;;12.82;70.34
78409;BME280;67697;50.750;-3.270;2023-11-22T11:10:57;102513.51;;;13.86;67.07
78409;BME280;67697;50.750;-3.270;2023-11-22T11:13:22;102504.84;;;13.60;64.95
78409;BME280;67697;50.750;-3.270;2023-11-22T11:15:48;102499.30;;;14.29;63.76
78409;BME280;67697;50.750;-3.270;2023-11-22T11:18:15;102490.29;;;13.09;65.27
78409;BME280;67697;50.750;-3.270;2023-11-22T11:20:45;102484.01;;;14.22;64.04
78409;BME280;67697;50.750;-3.270;2023-11-22T11:23:05;102487.09;;;13.19;67.33
78409;BME280;67697;50.750;-3.270;2023-11-22T11:25:32;102494.60;;;13.63;65.24
78409;BME280;67697;50.750;-3.270;2023-11-22T11:27:56;102494.23;;;14.46;65.67
78409;BME280;67697;50.750;-3.270;2023-11-22T11:32:50;102499.67;;;13.48;69.73
78409;BME280;67697;50.750;-3.270;2023-11-22T11:35:13;102499.50;;;12.67;74.44
78409;BME280;67697;50.750;-3.270;2023-11-22T11:37:38;102505.82;;;11.91;77.10
78409;BME280;67697;50.750;-3.270;2023-11-22T11:42:30;102498.12;;;12.90;75.32
78409;BME280;67697;50.750;-3.270;2023-11-22T11:45:05;102499.81;;;13.53;74.20
78409;BME280;67697;50.750;-3.270;2023-11-22T11:47:21;102506.23;;;13.66;72.21
78409;BME280;67697;50.750;-3.270;2023-11-22T11:49:49;102502.95;;;14.27;68.61
78409;BME280;67697;50.750;-3.270;2023-11-22T11:52:12;102500.39;;;13.59;67.69
78409;BME280;67697;50.750;-3.270;2023-11-22T11:54:39;102495.15;;;14.13;67.33
78409;BME280;67697;50.750;-3.270;2023-11-22T11:57:04;102494.63;;;15.25;64.00
78409;BME280;67697;50.750;-3.270;2023-11-22T11:59:29;102493.66;;;14.60;65.59
78409;BME280;67697;50.750;-3.270;2023-11-22T12:01:55;102493.72;;;14.04;66.06
78409;BME280;67697;50.750;-3.270;2023-11-22T12:04:20;102489.73;;;12.20;71.34
78409;BME280;67697;50.750;-3.270;2023-11-22T12:06:46;102484.63;;;14.11;69.30
78409;BME280;67697;50.750;-3.270;2023-11-22T12:09:11;102481.71;;;13.51;71.42
78409;BME280;67697;50.750;-3.270;2023-11-22T12:11:37;102471.65;;;13.29;71.55
78409;BME280;67697;50.750;-3.270;2023-11-22T12:14:04;102467.98;;;13.73;71.84
78409;BME280;67697;50.750;-3.270;2023-11-22T12:16:28;102456.30;;;14.25;69.00
78409;BME280;67697;50.750;-3.270;2023-11-22T12:18:54;102452.85;;;14.03;68.08
78409;BME280;67697;50.750;-3.270;2023-11-22T12:21:20;102459.34;;;14.08;69.49
78409;BME280;67697;50.750;-3.270;2023-11-22T12:23:46;102456.86;;;15.28;65.82
78409;BME280;67697;50.750;-3.270;2023-11-22T12:26:13;102457.61;;;15.15;65.64
78409;BME280;67697;50.750;-3.270;2023-11-22T12:28:36;102464.41;;;13.15;73.68
78409;BME280;67697;50.750;-3.270;2023-11-22T12:31:07;102456.83;;;13.49;74.86
78409;BME280;67697;50.750;-3.270;2023-11-22T12:33:27;102448.31;;;12.29;81.28
78409;BME280;67697;50.750;-3.270;2023-11-22T12:35:53;102447.45;;;11.52;85.81